sensor_id;sensor_type;location;lat;lon;timestamp;P1;durP1;ratioP1;P2;durP2;ratioP2
41903;SDS011;27586;51.124;4.182;2023-07-29T00:01:41;2.80;;;1.65;;
41903;SDS011;27586;51.124;4.182;2023-07-29T00:04:07;3.35;;;1.60;;
41903;SDS011;27586;51.124;4.182;2023-07-29T00:06:36;2.00;;;1.33;;
41903;SDS011;27586;51.124;4.182;2023-07-29T00:09:02;2.88;;;1.90;;
41903;SDS011;27586;51.124;4.182;2023-07-29T00:11:28;3.25;;;1.60;;
41903;SDS011;27586;51.124;4.182;2023-07-29T00:13:53;2.90;;;1.70;;
41903;SDS011;27586;51.124;4.182;2023-07-29T00:16:19;4.07;;;1.60;;
41903;SDS011;27586;51.124;4.182;2023-07-29T00:18:47;2.28;;;1.50;;
41903;SDS011;27586;51.124;4.182;2023-07-29T00:21:16;2.50;;;1.60;;
41903;SDS011;27586;51.124;4.182;2023-07-29T00:23:42;2.72;;;1.52;;
41903;SDS011;27586;51.124;4.182;2023-07-29T00:26:07;1.67;;;1.58;;
41903;SDS011;27586;51.124;4.182;2023-07-29T00:28:33;2.22;;;1.60;;
41903;SDS011;27586;51.124;4.182;2023-07-29T00:30:59;3.35;;;1.67;;
41903;SDS011;27586;51.124;4.182;2023-07-29T00:33:24;2.95;;;1.40;;
41903;SDS011;27586;51.124;4.182;2023-07-29T00:35:50;1.95;;;1.63;;
41903;SDS011;27586;51.124;4.182;2023-07-29T00:38:16;1.50;;;1.40;;
41903;SDS011;27586;51.124;4.182;2023-07-29T00:40:44;4.35;;;1.65;;
41903;SDS011;27586;51.124;4.182;2023-07-29T00:43:10;1.95;;;1.67;;
41903;SDS011;27586;51.124;4.182;2023-07-29T00:45:35;2.90;;;1.90;;
41903;SDS011;27586;51.124;4.182;2023-07-29T00:48:01;3.45;;;1.60;;
41903;SDS011;27586;51.124;4.182;2023-07-29T00:50:28;2.60;;;1.85;;
41903;SDS011;27586;51.124;4.182;2023-07-29T00:52:56;2.97;;;1.80;;
41903;SDS011;27586;51.124;4.182;2023-07-29T00:55:22;2.97;;;1.98;;
41903;SDS011;27586;51.124;4.182;2023-07-29T00:57:48;2.05;;;1.90;;
41903;SDS011;27586;51.124;4.182;2023-07-29T01:00:16;1.88;;;1.70;;
41903;SDS011;27586;51.124;4.182;2023-07-29T01:02:42;1.83;;;1.70;;
41903;SDS011;27586;51.124;4.182;2023-07-29T01:05:08;3.03;;;1.90;;
41903;SDS011;27586;51.124;4.182;2023-07-29T01:07:47;2.40;;;2.08;;
41903;SDS011;27586;51.124;4.182;2023-07-29T01:13:39;3.17;;;1.80;;
41903;SDS011;27586;51.124;4.182;2023-07-29T01:16:13;3.13;;;1.95;;
41903;SDS011;27586;51.124;4.182;2023-07-29T01:18:46;3.90;;;2.00;;
41903;SDS011;27586;51.124;4.182;2023-07-29T01:21:15;2.33;;;2.10;;
41903;SDS011;27586;51.124;4.182;2023-07-29T01:23:43;1.70;;;1.60;;
41903;SDS011;27586;51.124;4.182;2023-07-29T01:26:09;3.63;;;2.30;;
41903;SDS011;27586;51.124;4.182;2023-07-29T01:28:38;5.43;;;2.00;;
41903;SDS011;27586;51.124;4.182;2023-07-29T01:31:10;4.10;;;2.00;;
41903;SDS011;27586;51.124;4.182;2023-07-29T01:33:53;2.65;;;1.90;;
41903;SDS011;27586;51.124;4.182;2023-07-29T01:36:23;3.40;;;2.10;;
41903;SDS011;27586;51.124;4.182;2023-07-29T01:38:53;3.30;;;2.10;;
41903;SDS011;27586;51.124;4.182;2023-07-29T01:41:21;3.38;;;2.15;;
41903;SDS011;27586;51.124;4.182;2023-07-29T01:43:47;3.30;;;1.73;;
41903;SDS011;27586;51.124;4.182;2023-07-29T01:46:14;4.05;;;2.50;;
41903;SDS011;27586;51.124;4.182;2023-07-29T01:48:40;6.35;;;2.33;;
41903;SDS011;27586;51.124;4.182;2023-07-29T01:51:06;3.17;;;2.28;;
41903;SDS011;27586;51.124;4.182;2023-07-29T01:53:32;3.75;;;2.42;;
41903;SDS011;27586;51.124;4.182;2023-07-29T01:55:58;3.17;;;1.85;;
41903;SDS011;27586;51.124;4.182;2023-07-29T01:58:24;2.95;;;1.67;;
41903;SDS011;27586;51.124;4.182;2023-07-29T02:00:50;2.58;;;1.73;;
41903;SDS011;27586;51.124;4.182;2023-07-29T02:03:16;3.30;;;1.90;;
41903;SDS011;27586;51.124;4.182;2023-07-29T02:05:41;2.90;;;2.10;;
41903;SDS011;27586;51.124;4.182;2023-07-29T02:08:08;3.47;;;2.22;;
41903;SDS011;27586;51.124;4.182;2023-07-29T02:10:34;2.42;;;2.05;;
41903;SDS011;27586;51.124;4.182;2023-07-29T02:13:00;2.88;;;1.90;;
41903;SDS011;27586;51.124;4.182;2023-07-29T02:15:26;4.03;;;2.35;;
41903;SDS011;27586;51.124;4.182;2023-07-29T02:17:52;2.58;;;1.83;;
41903;SDS011;27586;51.124;4.182;2023-07-29T02:20:18;2.90;;;2.05;;
41903;SDS011;27586;51.124;4.182;2023-07-29T02:22:44;2.88;;;2.10;;
41903;SDS011;27586;51.124;4.182;2023-07-29T02:25:10;2.55;;;2.15;;
41903;SDS011;27586;51.124;4.182;2023-07-29T02:27:36;2.90;;;2.22;;
41903;SDS011;27586;51.124;4.182;2023-07-29T02:30:02;2.38;;;1.90;;
41903;SDS011;27586;51.124;4.182;2023-07-29T02:32:28;3.33;;;2.10;;
41903;SDS011;27586;51.124;4.182;2023-07-29T02:34:54;3.97;;;2.10;;
41903;SDS011;27586;51.124;4.182;2023-07-29T02:37:19;3.67;;;2.42;;
41903;SDS011;27586;51.124;4.182;2023-07-29T02:39:45;5.28;;;2.38;;
41903;SDS011;27586;51.124;4.182;2023-07-29T02:42:11;5.25;;;2.38;;
41903;SDS011;27586;51.124;4.182;2023-07-29T02:44:37;3.10;;;2.60;;
41903;SDS011;27586;51.124;4.182;2023-07-29T02:47:02;3.35;;;2.30;;
41903;SDS011;27586;51.124;4.182;2023-07-29T02:49:28;2.95;;;2.10;;
41903;SDS011;27586;51.124;4.182;2023-07-29T02:51:54;2.90;;;2.42;;
41903;SDS011;27586;51.124;4.182;2023-07-29T02:54:20;4.65;;;2.55;;
41903;SDS011;27586;51.124;4.182;2023-07-29T02:56:45;3.53;;;2.42;;
41903;SDS011;27586;51.124;4.182;2023-07-29T02:59:11;3.30;;;2.47;;
41903;SDS011;27586;51.124;4.182;2023-07-29T03:01:37;4.78;;;2.83;;
41903;SDS011;27586;51.124;4.182;2023-07-29T03:04:02;5.18;;;2.70;;
41903;SDS011;27586;51.124;4.182;2023-07-29T03:06:28;3.20;;;2.40;;
41903;SDS011;27586;51.124;4.182;2023-07-29T03:08:54;3.72;;;2.60;;
41903;SDS011;27586;51.124;4.182;2023-07-29T03:11:19;3.92;;;2.50;;
41903;SDS011;27586;51.124;4.182;2023-07-29T03:13:45;4.38;;;2.35;;
41903;SDS011;27586;51.124;4.182;2023-07-29T03:16:14;5.90;;;2.70;;
41903;SDS011;27586;51.124;4.182;2023-07-29T03:18:42;4.68;;;2.60;;
41903;SDS011;27586;51.124;4.182;2023-07-29T03:21:08;5.30;;;2.25;;
41903;SDS011;27586;51.124;4.182;2023-07-29T03:23:35;3.40;;;2.33;;
41903;SDS011;27586;51.124;4.182;2023-07-29T03:26:02;3.67;;;2.55;;
41903;SDS011;27586;51.124;4.182;2023-07-29T03:28:34;3.20;;;2.40;;
41903;SDS011;27586;51.124;4.182;2023-07-29T03:31:01;2.38;;;2.13;;
41903;SDS011;27586;51.124;4.182;2023-07-29T03:33:27;4.05;;;2.10;;
41903;SDS011;27586;51.124;4.182;2023-07-29T03:35:53;2.78;;;2.30;;
41903;SDS011;27586;51.124;4.182;2023-07-29T03:38:19;3.72;;;2.47;;
41903;SDS011;27586;51.124;4.182;2023-07-29T03:40:45;2.92;;;2.35;;
41903;SDS011;27586;51.124;4.182;2023-07-29T03:43:11;2.95;;;2.38;;
41903;SDS011;27586;51.124;4.182;2023-07-29T03:45:37;2.15;;;1.95;;
41903;SDS011;27586;51.124;4.182;2023-07-29T03:48:03;3.20;;;2.10;;
41903;SDS011;27586;51.124;4.182;2023-07-29T03:50:29;2.90;;;2.40;;
41903;SDS011;27586;51.124;4.182;2023-07-29T03:52:55;3.53;;;2.20;;
41903;SDS011;27586;51.124;4.182;2023-07-29T03:55:21;2.92;;;2.10;;
41903;SDS011;27586;51.124;4.182;2023-07-29T03:57:47;5.53;;;2.42;;
41903;SDS011;27586;51.124;4.182;2023-07-29T04:00:13;3.80;;;2.40;;
41903;SDS011;27586;51.124;4.182;2023-07-29T04:02:39;2.25;;;1.90;;
41903;SDS011;27586;51.124;4.182;2023-07-29T04:05:06;3.20;;;2.03;;
41903;SDS011;27586;51.124;4.182;2023-07-29T04:07:33;3.00;;;2.20;;
41903;SDS011;27586;51.124;4.182;2023-07-29T04:10:00;4.53;;;2.58;;
41903;SDS011;27586;51.124;4.182;2023-07-29T04:12:26;3.00;;;2.05;;
41903;SDS011;27586;51.124;4.182;2023-07-29T04:14:52;4.43;;;2.17;;
41903;SDS011;27586;51.124;4.182;2023-07-29T04:17:18;2.30;;;2.08;;
41903;SDS011;27586;51.124;4.182;2023-07-29T04:19:44;3.47;;;2.08;;
41903;SDS011;27586;51.124;4.182;2023-07-29T04:22:09;2.53;;;2.13;;
41903;SDS011;27586;51.124;4.182;2023-07-29T04:24:35;2.10;;;1.98;;
41903;SDS011;27586;51.124;4.182;2023-07-29T04:27:00;2.80;;;2.00;;
41903;SDS011;27586;51.124;4.182;2023-07-29T04:29:26;3.35;;;1.83;;
41903;SDS011;27586;51.124;4.182;2023-07-29T04:31:52;2.22;;;1.80;;
41903;SDS011;27586;51.124;4.182;2023-07-29T04:34:18;3.65;;;2.03;;
41903;SDS011;27586;51.124;4.182;2023-07-29T04:36:47;2.38;;;2.17;;
41903;SDS011;27586;51.124;4.182;2023-07-29T04:39:13;3.78;;;2.10;;
41903;SDS011;27586;51.124;4.182;2023-07-29T04:41:39;2.13;;;1.92;;
41903;SDS011;27586;51.124;4.182;2023-07-29T04:44:06;3.92;;;2.30;;
41903;SDS011;27586;51.124;4.182;2023-07-29T04:46:32;4.13;;;2.33;;
41903;SDS011;27586;51.124;4.182;2023-07-29T04:48:58;3.17;;;2.00;;
41903;SDS011;27586;51.124;4.182;2023-07-29T04:51:23;4.07;;;2.10;;
41903;SDS011;27586;51.124;4.182;2023-07-29T04:53:49;2.75;;;2.00;;
41903;SDS011;27586;51.124;4.182;2023-07-29T04:56:15;2.25;;;1.95;;
41903;SDS011;27586;51.124;4.182;2023-07-29T04:58:41;2.35;;;2.08;;
41903;SDS011;27586;51.124;4.182;2023-07-29T05:01:06;2.53;;;2.05;;
41903;SDS011;27586;51.124;4.182;2023-07-29T05:03:32;1.83;;;1.73;;
41903;SDS011;27586;51.124;4.182;2023-07-29T05:05:58;2.65;;;1.80;;
41903;SDS011;27586;51.124;4.182;2023-07-29T05:08:24;2.92;;;1.75;;
41903;SDS011;27586;51.124;4.182;2023-07-29T05:10:51;3.03;;;1.90;;
41903;SDS011;27586;51.124;4.182;2023-07-29T05:13:18;1.85;;;1.75;;
41903;SDS011;27586;51.124;4.182;2023-07-29T05:15:43;2.50;;;1.98;;
41903;SDS011;27586;51.124;4.182;2023-07-29T05:18:10;5.50;;;2.08;;
41903;SDS011;27586;51.124;4.182;2023-07-29T05:20:36;1.95;;;1.63;;
41903;SDS011;27586;51.124;4.182;2023-07-29T05:23:01;3.35;;;1.83;;
41903;SDS011;27586;51.124;4.182;2023-07-29T05:25:28;2.45;;;1.60;;
41903;SDS011;27586;51.124;4.182;2023-07-29T05:27:54;2.80;;;1.50;;
41903;SDS011;27586;51.124;4.182;2023-07-29T05:30:19;1.67;;;1.58;;
41903;SDS011;27586;51.124;4.182;2023-07-29T05:32:45;2.55;;;1.90;;
41903;SDS011;27586;51.124;4.182;2023-07-29T05:35:11;3.20;;;1.80;;
41903;SDS011;27586;51.124;4.182;2023-07-29T05:37:39;2.08;;;1.80;;
41903;SDS011;27586;51.124;4.182;2023-07-29T05:40:06;2.25;;;1.80;;
41903;SDS011;27586;51.124;4.182;2023-07-29T05:42:33;2.60;;;2.00;;
41903;SDS011;27586;51.124;4.182;2023-07-29T05:44:59;4.32;;;2.00;;
41903;SDS011;27586;51.124;4.182;2023-07-29T05:47:25;2.38;;;1.75;;
41903;SDS011;27586;51.124;4.182;2023-07-29T05:49:51;2.92;;;2.10;;
41903;SDS011;27586;51.124;4.182;2023-07-29T05:52:17;3.22;;;1.83;;
41903;SDS011;27586;51.124;4.182;2023-07-29T05:54:42;4.60;;;1.92;;
41903;SDS011;27586;51.124;4.182;2023-07-29T05:57:11;2.35;;;1.83;;
41903;SDS011;27586;51.124;4.182;2023-07-29T05:59:37;3.20;;;1.83;;
41903;SDS011;27586;51.124;4.182;2023-07-29T06:02:04;3.15;;;1.75;;
41903;SDS011;27586;51.124;4.182;2023-07-29T06:04:29;3.10;;;1.90;;
41903;SDS011;27586;51.124;4.182;2023-07-29T06:06:55;2.85;;;1.80;;
41903;SDS011;27586;51.124;4.182;2023-07-29T06:09:24;4.28;;;2.03;;
41903;SDS011;27586;51.124;4.182;2023-07-29T06:11:50;1.70;;;1.60;;
41903;SDS011;27586;51.124;4.182;2023-07-29T06:14:16;1.92;;;1.73;;
41903;SDS011;27586;51.124;4.182;2023-07-29T06:16:42;2.03;;;1.70;;
41903;SDS011;27586;51.124;4.182;2023-07-29T06:19:08;3.33;;;1.65;;
41903;SDS011;27586;51.124;4.182;2023-07-29T06:21:34;2.88;;;1.70;;
41903;SDS011;27586;51.124;4.182;2023-07-29T06:24:00;2.05;;;1.60;;
41903;SDS011;27586;51.124;4.182;2023-07-29T06:26:26;2.70;;;1.50;;
41903;SDS011;27586;51.124;4.182;2023-07-29T06:28:53;3.20;;;1.50;;
41903;SDS011;27586;51.124;4.182;2023-07-29T06:31:19;3.60;;;1.48;;
41903;SDS011;27586;51.124;4.182;2023-07-29T06:33:44;2.33;;;1.50;;
41903;SDS011;27586;51.124;4.182;2023-07-29T06:36:10;2.95;;;1.67;;
41903;SDS011;27586;51.124;4.182;2023-07-29T06:38:36;2.45;;;1.48;;
41903;SDS011;27586;51.124;4.182;2023-07-29T06:41:03;3.35;;;1.65;;
41903;SDS011;27586;51.124;4.182;2023-07-29T06:43:29;2.47;;;1.50;;
41903;SDS011;27586;51.124;4.182;2023-07-29T06:45:54;2.03;;;1.60;;
41903;SDS011;27586;51.124;4.182;2023-07-29T06:48:20;5.03;;;1.60;;
41903;SDS011;27586;51.124;4.182;2023-07-29T06:50:46;4.30;;;1.50;;
41903;SDS011;27586;51.124;4.182;2023-07-29T06:53:11;3.30;;;1.60;;
41903;SDS011;27586;51.124;4.182;2023-07-29T06:55:37;3.33;;;1.40;;
41903;SDS011;27586;51.124;4.182;2023-07-29T06:58:03;2.28;;;1.50;;
41903;SDS011;27586;51.124;4.182;2023-07-29T07:00:28;4.10;;;1.80;;
41903;SDS011;27586;51.124;4.182;2023-07-29T07:02:54;3.45;;;1.60;;
41903;SDS011;27586;51.124;4.182;2023-07-29T07:05:19;3.92;;;1.70;;
41903;SDS011;27586;51.124;4.182;2023-07-29T07:07:45;3.20;;;1.58;;
41903;SDS011;27586;51.124;4.182;2023-07-29T07:10:11;4.20;;;1.67;;
41903;SDS011;27586;51.124;4.182;2023-07-29T07:12:37;2.47;;;1.50;;
41903;SDS011;27586;51.124;4.182;2023-07-29T07:15:02;3.05;;;1.55;;
41903;SDS011;27586;51.124;4.182;2023-07-29T07:17:28;1.85;;;1.30;;
41903;SDS011;27586;51.124;4.182;2023-07-29T07:19:54;1.85;;;1.30;;
41903;SDS011;27586;51.124;4.182;2023-07-29T07:22:19;4.47;;;1.52;;
41903;SDS011;27586;51.124;4.182;2023-07-29T07:24:45;1.58;;;1.48;;
41903;SDS011;27586;51.124;4.182;2023-07-29T07:27:11;2.92;;;1.58;;
41903;SDS011;27586;51.124;4.182;2023-07-29T07:29:36;2.38;;;1.63;;
41903;SDS011;27586;51.124;4.182;2023-07-29T07:32:02;1.55;;;1.20;;
41903;SDS011;27586;51.124;4.182;2023-07-29T07:34:28;4.18;;;1.30;;
41903;SDS011;27586;51.124;4.182;2023-07-29T07:36:54;2.53;;;1.30;;
41903;SDS011;27586;51.124;4.182;2023-07-29T07:39:19;1.60;;;1.40;;
41903;SDS011;27586;51.124;4.182;2023-07-29T07:41:45;2.08;;;1.48;;
41903;SDS011;27586;51.124;4.182;2023-07-29T07:44:11;2.10;;;1.27;;
41903;SDS011;27586;51.124;4.182;2023-07-29T07:46:40;2.35;;;1.27;;
41903;SDS011;27586;51.124;4.182;2023-07-29T07:49:06;1.55;;;1.33;;
41903;SDS011;27586;51.124;4.182;2023-07-29T07:51:32;6.78;;;2.30;;
41903;SDS011;27586;51.124;4.182;2023-07-29T07:53:57;1.30;;;1.23;;
41903;SDS011;27586;51.124;4.182;2023-07-29T07:56:23;3.03;;;1.60;;
41903;SDS011;27586;51.124;4.182;2023-07-29T07:58:49;3.67;;;1.35;;
41903;SDS011;27586;51.124;4.182;2023-07-29T08:01:14;1.30;;;1.00;;
41903;SDS011;27586;51.124;4.182;2023-07-29T08:03:40;1.77;;;1.20;;
41903;SDS011;27586;51.124;4.182;2023-07-29T08:06:05;2.05;;;1.30;;
41903;SDS011;27586;51.124;4.182;2023-07-29T08:08:31;2.13;;;1.20;;
41903;SDS011;27586;51.124;4.182;2023-07-29T08:10:57;1.65;;;1.08;;
41903;SDS011;27586;51.124;4.182;2023-07-29T08:13:23;2.65;;;1.25;;
41903;SDS011;27586;51.124;4.182;2023-07-29T08:15:50;1.23;;;1.05;;
41903;SDS011;27586;51.124;4.182;2023-07-29T08:18:17;2.42;;;1.10;;
41903;SDS011;27586;51.124;4.182;2023-07-29T08:20:53;1.58;;;1.35;;
41903;SDS011;27586;51.124;4.182;2023-07-29T08:23:20;2.08;;;1.10;;
41903;SDS011;27586;51.124;4.182;2023-07-29T08:25:51;2.70;;;1.20;;
41903;SDS011;27586;51.124;4.182;2023-07-29T08:28:21;1.38;;;1.20;;
41903;SDS011;27586;51.124;4.182;2023-07-29T08:30:47;2.53;;;1.40;;
41903;SDS011;27586;51.124;4.182;2023-07-29T08:33:13;1.85;;;1.00;;
41903;SDS011;27586;51.124;4.182;2023-07-29T08:35:39;2.05;;;1.20;;
41903;SDS011;27586;51.124;4.182;2023-07-29T08:38:05;1.95;;;1.30;;
41903;SDS011;27586;51.124;4.182;2023-07-29T08:40:31;1.77;;;1.10;;
41903;SDS011;27586;51.124;4.182;2023-07-29T08:42:58;1.58;;;1.20;;
41903;SDS011;27586;51.124;4.182;2023-07-29T08:45:31;2.25;;;1.05;;
41903;SDS011;27586;51.124;4.182;2023-07-29T08:48:05;1.77;;;1.20;;
41903;SDS011;27586;51.124;4.182;2023-07-29T08:50:33;1.50;;;1.10;;
41903;SDS011;27586;51.124;4.182;2023-07-29T08:53:03;1.95;;;1.45;;
41903;SDS011;27586;51.124;4.182;2023-07-29T08:55:30;3.50;;;1.25;;
41903;SDS011;27586;51.124;4.182;2023-07-29T08:57:56;2.70;;;1.25;;
41903;SDS011;27586;51.124;4.182;2023-07-29T09:00:23;2.58;;;1.52;;
41903;SDS011;27586;51.124;4.182;2023-07-29T09:02:50;4.53;;;1.60;;
41903;SDS011;27586;51.124;4.182;2023-07-29T09:05:15;1.98;;;1.50;;
41903;SDS011;27586;51.124;4.182;2023-07-29T09:07:41;2.05;;;1.30;;
41903;SDS011;27586;51.124;4.182;2023-07-29T09:10:09;2.00;;;1.20;;
41903;SDS011;27586;51.124;4.182;2023-07-29T09:12:37;2.20;;;1.13;;
41903;SDS011;27586;51.124;4.182;2023-07-29T09:15:04;2.80;;;1.20;;
41903;SDS011;27586;51.124;4.182;2023-07-29T09:17:31;2.45;;;1.50;;
41903;SDS011;27586;51.124;4.182;2023-07-29T09:20:00;3.42;;;1.52;;
41903;SDS011;27586;51.124;4.182;2023-07-29T09:22:26;1.58;;;1.23;;
41903;SDS011;27586;51.124;4.182;2023-07-29T09:24:52;2.63;;;1.33;;
41903;SDS011;27586;51.124;4.182;2023-07-29T09:27:27;3.58;;;1.20;;
41903;SDS011;27586;51.124;4.182;2023-07-29T09:29:56;1.35;;;1.23;;
41903;SDS011;27586;51.124;4.182;2023-07-29T09:32:23;1.50;;;1.10;;
41903;SDS011;27586;51.124;4.182;2023-07-29T09:34:50;3.58;;;1.52;;
41903;SDS011;27586;51.124;4.182;2023-07-29T09:37:16;2.25;;;1.50;;
41903;SDS011;27586;51.124;4.182;2023-07-29T09:39:46;1.92;;;1.52;;
41903;SDS011;27586;51.124;4.182;2023-07-29T09:42:19;3.15;;;1.60;;
41903;SDS011;27586;51.124;4.182;2023-07-29T09:44:48;2.25;;;1.50;;
41903;SDS011;27586;51.124;4.182;2023-07-29T09:47:24;2.17;;;1.40;;
41903;SDS011;27586;51.124;4.182;2023-07-29T09:49:50;3.40;;;1.50;;
41903;SDS011;27586;51.124;4.182;2023-07-29T09:52:17;2.92;;;2.42;;
41903;SDS011;27586;51.124;4.182;2023-07-29T09:54:44;2.17;;;1.60;;
41903;SDS011;27586;51.124;4.182;2023-07-29T09:57:16;2.10;;;1.38;;
41903;SDS011;27586;51.124;4.182;2023-07-29T09:59:52;2.90;;;1.58;;
41903;SDS011;27586;51.124;4.182;2023-07-29T10:02:22;2.95;;;1.75;;
41903;SDS011;27586;51.124;4.182;2023-07-29T10:04:50;1.63;;;1.48;;
41903;SDS011;27586;51.124;4.182;2023-07-29T10:07:17;1.92;;;1.60;;
41903;SDS011;27586;51.124;4.182;2023-07-29T10:09:45;2.10;;;1.60;;
41903;SDS011;27586;51.124;4.182;2023-07-29T10:12:11;2.03;;;1.70;;
41903;SDS011;27586;51.124;4.182;2023-07-29T10:14:38;2.38;;;1.63;;
41903;SDS011;27586;51.124;4.182;2023-07-29T10:17:07;2.65;;;1.75;;
41903;SDS011;27586;51.124;4.182;2023-07-29T10:19:34;2.45;;;1.55;;
41903;SDS011;27586;51.124;4.182;2023-07-29T10:22:01;2.78;;;1.70;;
41903;SDS011;27586;51.124;4.182;2023-07-29T10:24:29;1.80;;;1.58;;
41903;SDS011;27586;51.124;4.182;2023-07-29T10:26:57;1.65;;;1.40;;
41903;SDS011;27586;51.124;4.182;2023-07-29T10:29:24;2.83;;;1.65;;
41903;SDS011;27586;51.124;4.182;2023-07-29T10:31:53;2.42;;;1.50;;
41903;SDS011;27586;51.124;4.182;2023-07-29T10:34:22;2.20;;;1.45;;
41903;SDS011;27586;51.124;4.182;2023-07-29T10:36:49;2.20;;;1.60;;
41903;SDS011;27586;51.124;4.182;2023-07-29T10:39:15;2.60;;;1.45;;
41903;SDS011;27586;51.124;4.182;2023-07-29T10:41:54;3.25;;;1.60;;
41903;SDS011;27586;51.124;4.182;2023-07-29T10:47:22;1.90;;;1.42;;
41903;SDS011;27586;51.124;4.182;2023-07-29T10:49:50;2.53;;;1.63;;
41903;SDS011;27586;51.124;4.182;2023-07-29T10:52:37;1.63;;;1.48;;
41903;SDS011;27586;51.124;4.182;2023-07-29T10:55:22;1.77;;;1.60;;
41903;SDS011;27586;51.124;4.182;2023-07-29T10:58:03;2.47;;;1.80;;
41903;SDS011;27586;51.124;4.182;2023-07-29T11:00:34;2.78;;;1.75;;
41903;SDS011;27586;51.124;4.182;2023-07-29T11:03:01;1.70;;;1.60;;
41903;SDS011;27586;51.124;4.182;2023-07-29T11:05:41;3.95;;;2.08;;
41903;SDS011;27586;51.124;4.182;2023-07-29T11:08:15;4.85;;;2.00;;
41903;SDS011;27586;51.124;4.182;2023-07-29T11:10:57;5.43;;;2.17;;
41903;SDS011;27586;51.124;4.182;2023-07-29T11:13:31;6.07;;;3.42;;
41903;SDS011;27586;51.124;4.182;2023-07-29T11:16:01;6.68;;;2.53;;
41903;SDS011;27586;51.124;4.182;2023-07-29T11:18:28;3.90;;;2.90;;
41903;SDS011;27586;51.124;4.182;2023-07-29T11:20:55;5.20;;;2.60;;
41903;SDS011;27586;51.124;4.182;2023-07-29T11:23:32;3.80;;;2.38;;
41903;SDS011;27586;51.124;4.182;2023-07-29T11:25:59;3.08;;;2.78;;
41903;SDS011;27586;51.124;4.182;2023-07-29T11:28:26;3.08;;;2.58;;
41903;SDS011;27586;51.124;4.182;2023-07-29T11:30:56;4.28;;;2.45;;
41903;SDS011;27586;51.124;4.182;2023-07-29T11:33:26;3.42;;;2.80;;
41903;SDS011;27586;51.124;4.182;2023-07-29T11:35:53;4.53;;;2.50;;
41903;SDS011;27586;51.124;4.182;2023-07-29T11:38:20;4.38;;;2.38;;
41903;SDS011;27586;51.124;4.182;2023-07-29T11:40:59;3.60;;;2.60;;
41903;SDS011;27586;51.124;4.182;2023-07-29T11:43:27;4.18;;;2.28;;
41903;SDS011;27586;51.124;4.182;2023-07-29T11:45:53;3.35;;;2.60;;
41903;SDS011;27586;51.124;4.182;2023-07-29T11:48:28;3.22;;;2.60;;
41903;SDS011;27586;51.124;4.182;2023-07-29T11:50:57;3.85;;;2.30;;
41903;SDS011;27586;51.124;4.182;2023-07-29T11:53:25;2.95;;;2.28;;
41903;SDS011;27586;51.124;4.182;2023-07-29T11:55:53;2.75;;;2.15;;
41903;SDS011;27586;51.124;4.182;2023-07-29T11:58:18;4.68;;;2.63;;
41903;SDS011;27586;51.124;4.182;2023-07-29T12:00:45;2.72;;;1.73;;
41903;SDS011;27586;51.124;4.182;2023-07-29T12:03:11;2.13;;;1.92;;
41903;SDS011;27586;51.124;4.182;2023-07-29T12:05:37;2.40;;;1.85;;
41903;SDS011;27586;51.124;4.182;2023-07-29T12:08:03;2.83;;;1.90;;
41903;SDS011;27586;51.124;4.182;2023-07-29T12:10:29;1.50;;;1.40;;
41903;SDS011;27586;51.124;4.182;2023-07-29T12:12:55;1.85;;;1.65;;
41903;SDS011;27586;51.124;4.182;2023-07-29T12:15:24;3.63;;;1.33;;
41903;SDS011;27586;51.124;4.182;2023-07-29T12:17:52;4.15;;;1.60;;
41903;SDS011;27586;51.124;4.182;2023-07-29T12:20:20;1.67;;;1.20;;
41903;SDS011;27586;51.124;4.182;2023-07-29T12:22:51;1.92;;;1.40;;
41903;SDS011;27586;51.124;4.182;2023-07-29T12:25:18;3.30;;;1.50;;
41903;SDS011;27586;51.124;4.182;2023-07-29T12:27:43;1.48;;;1.38;;
41903;SDS011;27586;51.124;4.182;2023-07-29T12:30:09;2.55;;;1.30;;
41903;SDS011;27586;51.124;4.182;2023-07-29T12:32:45;2.10;;;1.15;;
41903;SDS011;27586;51.124;4.182;2023-07-29T12:35:11;1.20;;;1.10;;
41903;SDS011;27586;51.124;4.182;2023-07-29T12:37:37;1.38;;;1.00;;
41903;SDS011;27586;51.124;4.182;2023-07-29T12:40:07;1.33;;;1.20;;
41903;SDS011;27586;51.124;4.182;2023-07-29T12:42:33;1.63;;;1.27;;
41903;SDS011;27586;51.124;4.182;2023-07-29T12:44:58;2.25;;;1.30;;
41903;SDS011;27586;51.124;4.182;2023-07-29T12:47:24;3.90;;;1.67;;
41903;SDS011;27586;51.124;4.182;2023-07-29T12:49:50;1.80;;;1.45;;
41903;SDS011;27586;51.124;4.182;2023-07-29T12:52:16;2.95;;;1.30;;
41903;SDS011;27586;51.124;4.182;2023-07-29T12:54:41;3.17;;;1.20;;
41903;SDS011;27586;51.124;4.182;2023-07-29T12:57:09;2.67;;;1.30;;
41903;SDS011;27586;51.124;4.182;2023-07-29T12:59:34;3.17;;;1.50;;
41903;SDS011;27586;51.124;4.182;2023-07-29T13:02:00;2.58;;;1.55;;
41903;SDS011;27586;51.124;4.182;2023-07-29T13:04:26;2.30;;;1.30;;
41903;SDS011;27586;51.124;4.182;2023-07-29T13:06:51;2.15;;;1.52;;
41903;SDS011;27586;51.124;4.182;2023-07-29T13:09:17;2.13;;;1.20;;
41903;SDS011;27586;51.124;4.182;2023-07-29T13:11:42;1.52;;;1.30;;
41903;SDS011;27586;51.124;4.182;2023-07-29T13:14:08;2.88;;;1.63;;
41903;SDS011;27586;51.124;4.182;2023-07-29T13:16:34;1.30;;;1.20;;
41903;SDS011;27586;51.124;4.182;2023-07-29T13:18:59;1.17;;;1.10;;
41903;SDS011;27586;51.124;4.182;2023-07-29T13:21:25;1.40;;;1.23;;
41903;SDS011;27586;51.124;4.182;2023-07-29T13:23:51;2.05;;;1.17;;
41903;SDS011;27586;51.124;4.182;2023-07-29T13:26:16;1.88;;;1.40;;
41903;SDS011;27586;51.124;4.182;2023-07-29T13:28:42;2.97;;;1.33;;
41903;SDS011;27586;51.124;4.182;2023-07-29T13:31:08;1.40;;;1.30;;
41903;SDS011;27586;51.124;4.182;2023-07-29T13:33:34;3.20;;;1.40;;
41903;SDS011;27586;51.124;4.182;2023-07-29T13:36:00;1.25;;;1.15;;
41903;SDS011;27586;51.124;4.182;2023-07-29T13:38:28;1.35;;;1.10;;
41903;SDS011;27586;51.124;4.182;2023-07-29T13:40:54;3.60;;;1.17;;
41903;SDS011;27586;51.124;4.182;2023-07-29T13:43:19;1.50;;;1.25;;
41903;SDS011;27586;51.124;4.182;2023-07-29T13:45:45;1.30;;;1.20;;
41903;SDS011;27586;51.124;4.182;2023-07-29T13:48:13;2.65;;;1.30;;
41903;SDS011;27586;51.124;4.182;2023-07-29T13:50:39;2.13;;;1.20;;
41903;SDS011;27586;51.124;4.182;2023-07-29T13:53:06;2.03;;;1.55;;
41903;SDS011;27586;51.124;4.182;2023-07-29T13:55:32;3.67;;;1.27;;
41903;SDS011;27586;51.124;4.182;2023-07-29T13:57:57;2.15;;;1.25;;
41903;SDS011;27586;51.124;4.182;2023-07-29T14:00:23;2.70;;;1.33;;
41903;SDS011;27586;51.124;4.182;2023-07-29T14:02:48;2.03;;;1.40;;
41903;SDS011;27586;51.124;4.182;2023-07-29T14:05:14;2.38;;;1.40;;
41903;SDS011;27586;51.124;4.182;2023-07-29T14:07:40;1.30;;;1.20;;
41903;SDS011;27586;51.124;4.182;2023-07-29T14:10:06;1.40;;;1.30;;
41903;SDS011;27586;51.124;4.182;2023-07-29T14:12:32;2.25;;;1.60;;
41903;SDS011;27586;51.124;4.182;2023-07-29T14:14:57;2.80;;;1.38;;
41903;SDS011;27586;51.124;4.182;2023-07-29T14:17:23;1.25;;;1.15;;
41903;SDS011;27586;51.124;4.182;2023-07-29T14:19:48;2.38;;;1.45;;
41903;SDS011;27586;51.124;4.182;2023-07-29T14:22:15;1.58;;;1.48;;
41903;SDS011;27586;51.124;4.182;2023-07-29T14:24:41;1.80;;;1.38;;
41903;SDS011;27586;51.124;4.182;2023-07-29T14:27:06;2.33;;;1.42;;
41903;SDS011;27586;51.124;4.182;2023-07-29T14:29:32;4.75;;;1.63;;
41903;SDS011;27586;51.124;4.182;2023-07-29T14:31:57;1.50;;;1.30;;
41903;SDS011;27586;51.124;4.182;2023-07-29T14:34:23;1.92;;;1.30;;
41903;SDS011;27586;51.124;4.182;2023-07-29T14:36:49;1.33;;;1.23;;
41903;SDS011;27586;51.124;4.182;2023-07-29T14:39:14;3.10;;;1.50;;
41903;SDS011;27586;51.124;4.182;2023-07-29T14:41:40;1.50;;;1.40;;
41903;SDS011;27586;51.124;4.182;2023-07-29T14:44:05;1.67;;;1.30;;
41903;SDS011;27586;51.124;4.182;2023-07-29T14:46:31;1.50;;;1.20;;
41903;SDS011;27586;51.124;4.182;2023-07-29T14:48:57;1.83;;;1.40;;
41903;SDS011;27586;51.124;4.182;2023-07-29T14:51:23;1.27;;;1.20;;
41903;SDS011;27586;51.124;4.182;2023-07-29T14:53:49;1.33;;;1.20;;